Terminal Aerodrome Forecast
Issued by NWS Twin Cities, MN

Home | Current Version | Previous Version | Text Only | Print | Product List | Glossary Off
Versions: 1 2 3 4 5 6 7 8 9 10 11 12 13 14 15 16 17

000
FTUS43 KMPX 251100 AAB
TAFEAU
TAF AMD
KEAU 251152Z 2512/2612 00000KT 4SM BR SCT150
      TEMPO 2512/2513 1SM BR BKN001
     FM251330 25009KT P6SM SKC
     FM260100 29005KT P6SM SCT150=

USA.gov is the U.S. government's official web portal to all federal, state and local government web resources and services.